Time;durP1;ratioP1;P1;durP2;ratioP2;P2;SDS_P1;SDS_P2;PMS_P1;PMS_P2;Temp;Humidity;BMP_temperature;BMP_pressure;BME280_temperature;BME280_humidity;BME280_pressure;Samples;Min_cycle;Max_cycle;Signal;HPM_P1;HPM_P2
2022/11/30 00:00:16;;;;;;;78.80;24.58;;;;;;;0.62;100.00;95638.81;4990757;28;20054;-76
2022/11/30 00:03:02;;;;;;;80.68;23.27;;;;;;;0.51;100.00;95640.22;5005249;28;20046;-76
2022/11/30 00:05:28;;;;;;;72.78;20.63;;;;;;;0.63;100.00;95640.38;5000059;28;20053;-76
2022/11/30 00:07:54;;;;;;;74.40;21.83;;;;;;;0.61;100.00;95642.38;4989294;28;20046;-76
2022/11/30 00:10:21;;;;;;;75.28;22.02;;;;;;;0.56;100.00;95634.41;4992786;28;20682;-76
2022/11/30 00:12:47;;;;;;;85.68;23.40;;;;;;;0.59;100.00;95634.00;5007997;28;20042;-76
2022/11/30 00:15:15;;;;;;;85.28;22.80;;;;;;;0.64;100.00;95631.63;4990261;28;20385;-76
2022/11/30 00:17:41;;;;;;;81.75;24.23;;;;;;;0.61;100.00;95632.03;4997355;28;20039;-76
2022/11/30 00:20:08;;;;;;;79.88;23.70;;;;;;;0.64;100.00;95631.63;4990441;28;20124;-76
2022/11/30 00:22:33;;;;;;;87.78;23.20;;;;;;;0.63;100.00;95640.38;5004015;28;20046;-76
2022/11/30 00:25:01;;;;;;;89.15;24.60;;;;;;;0.67;100.00;95636.38;4991866;28;20558;-76
2022/11/30 00:27:31;;;;;;;80.15;23.23;;;;;;;0.66;100.00;95637.38;4991255;28;20412;-76
2022/11/30 00:29:58;;;;;;;81.75;24.17;;;;;;;0.73;100.00;95640.75;5009936;28;20092;-76
2022/11/30 00:32:25;;;;;;;80.88;22.92;;;;;;;0.64;100.00;95637.56;5009189;28;20062;-76
2022/11/30 00:34:50;;;;;;;92.13;24.15;;;;;;;0.60;100.00;95641.56;5008726;28;20544;-76
2022/11/30 00:37:16;;;;;;;96.68;24.92;;;;;;;0.57;100.00;95648.97;5021123;28;20069;-76
2022/11/30 00:39:42;;;;;;;86.93;25.48;;;;;;;0.63;100.00;95642.97;5010076;28;20087;-76
2022/11/30 00:42:07;;;;;;;87.25;24.55;;;;;;;0.66;100.00;95656.31;5008237;28;20042;-76
2022/11/30 00:44:33;;;;;;;93.70;25.20;;;;;;;0.63;100.00;95645.56;5005166;28;20515;-76
2022/11/30 00:46:58;;;;;;;94.90;26.60;;;;;;;0.69;100.00;95647.34;5000621;28;20049;-76
2022/11/30 00:49:24;;;;;;;101.07;25.92;;;;;;;0.65;100.00;95643.56;4993871;28;20052;-76
2022/11/30 00:51:49;;;;;;;105.50;26.77;;;;;;;0.63;100.00;95661.09;4994020;28;20050;-76
2022/11/30 00:54:15;;;;;;;94.15;27.40;;;;;;;0.60;100.00;95651.94;5010391;28;20061;-76
2022/11/30 00:56:40;;;;;;;95.45;25.23;;;;;;;0.58;100.00;95659.13;5007446;28;20034;-76
2022/11/30 00:59:06;;;;;;;90.05;25.67;;;;;;;0.57;100.00;95667.88;5007832;28;20038;-76
2022/11/30 01:01:31;;;;;;;100.75;27.38;;;;;;;0.54;100.00;95670.09;5004230;28;20042;-75
2022/11/30 01:03:57;;;;;;;109.50;26.80;;;;;;;0.55;100.00;95662.13;5003963;28;20038;-75
2022/11/30 01:06:23;;;;;;;94.53;27.08;;;;;;;0.57;100.00;95667.09;5002504;28;20412;-75
2022/11/30 01:08:49;;;;;;;122.28;28.45;;;;;;;0.62;100.00;95659.53;5002115;28;20053;-74
2022/11/30 01:11:20;;;;;;;114.03;29.45;;;;;;;0.56;100.00;95662.91;5006150;28;20510;-76
2022/11/30 01:13:46;;;;;;;96.13;26.73;;;;;;;0.50;100.00;95662.72;5012189;28;20042;-76
2022/11/30 01:16:18;;;;;;;91.78;23.60;;;;;;;0.55;100.00;95653.53;5012349;28;20096;-76
2022/11/30 01:18:44;;;;;;;81.25;22.15;;;;;;;0.55;100.00;95658.72;4996302;28;20039;-76
2022/11/30 01:21:13;;;;;;;87.13;24.00;;;;;;;0.57;100.00;95661.91;5001276;28;20516;-76
2022/11/30 01:23:39;;;;;;;86.15;23.92;;;;;;;0.61;100.00;95657.94;5006159;28;20046;-75
2022/11/30 01:26:06;;;;;;;86.07;23.33;;;;;;;0.60;100.00;95658.91;4999138;28;20116;-76
2022/11/30 01:28:32;;;;;;;88.75;24.98;;;;;;;0.58;100.00;95666.09;5006294;28;20038;-75
2022/11/30 01:30:59;;;;;;;92.50;24.23;;;;;;;0.64;100.00;95662.69;5011977;28;20484;-76
2022/11/30 01:33:25;;;;;;;97.22;25.20;;;;;;;0.61;100.00;95668.28;5020276;28;20045;-75
2022/11/30 01:36:11;;;;;;;89.78;25.80;;;;;;;0.55;100.00;95663.88;5008900;28;20038;-76
2022/11/30 01:38:48;;;;;;;88.50;24.73;;;;;;;0.63;100.00;95666.28;5012712;28;20491;-76
2022/11/30 01:41:24;;;;;;;88.88;24.77;;;;;;;0.60;100.00;95669.28;5012186;28;20054;-76
2022/11/30 01:43:52;;;;;;;105.53;26.98;;;;;;;0.52;100.00;95668.50;5012698;28;20057;-75
2022/11/30 01:46:30;;;;;;;93.50;24.85;;;;;;;0.59;100.00;95662.50;5009434;28;20052;-76
2022/11/30 01:48:59;;;;;;;80.38;23.50;;;;;;;0.57;100.00;95659.31;5004456;28;20034;-76
2022/11/30 01:51:29;;;;;;;95.85;28.05;;;;;;;0.50;100.00;95662.72;5011888;28;20038;-76
2022/11/30 01:53:56;;;;;;;87.88;24.67;;;;;;;0.52;100.00;95665.91;5012499;28;20492;-76
2022/11/30 01:56:21;;;;;;;87.15;26.05;;;;;;;0.56;100.00;95665.50;5005898;28;20555;-75
2022/11/30 01:58:47;;;;;;;104.88;27.65;;;;;;;0.52;100.00;95660.72;5011209;28;20038;-76
2022/11/30 02:01:13;;;;;;;97.40;26.33;;;;;;;0.49;100.00;95668.91;5012255;28;20552;-75
2022/11/30 02:03:42;;;;;;;94.47;26.42;;;;;;;0.49;100.00;95661.13;5011553;28;20045;-75
2022/11/30 02:06:08;;;;;;;109.13;28.58;;;;;;;0.46;100.00;95665.91;4996810;28;20567;-76
2022/11/30 02:08:34;;;;;;;96.68;26.83;;;;;;;0.54;100.00;95662.31;5005054;28;20046;-76
2022/11/30 02:11:04;;;;;;;120.40;28.25;;;;;;;0.54;100.00;95659.72;5008611;28;20518;-76
2022/11/30 02:13:39;;;;;;;109.10;29.25;;;;;;;0.48;100.00;95653.56;5006016;28;20097;-75
2022/11/30 02:16:20;;;;;;;116.07;28.98;;;;;;;0.46;100.00;95652.94;4990964;28;20116;-75
2022/11/30 02:19:16;;;;;;;106.65;28.48;;;;;;;0.51;100.00;95653.94;5004608;28;20141;-76
2022/11/30 02:21:50;;;;;;;105.05;26.70;;;;;;;0.54;100.00;95651.97;5009135;28;20038;-75
2022/11/30 02:24:53;;;;;;;105.88;27.15;;;;;;;0.48;100.00;95649.16;5006617;28;20038;-75
2022/11/30 02:27:27;;;;;;;107.82;27.27;;;;;;;0.45;100.00;95654.75;4996189;28;20057;-76
2022/11/30 02:29:59;;;;;;;106.90;28.33;;;;;;;0.44;100.00;95657.56;5007448;28;20057;-76
2022/11/30 02:32:30;;;;;;;110.88;28.45;;;;;;;0.47;100.00;95663.09;5011621;28;20053;-76
2022/11/30 02:34:57;;;;;;;111.32;27.38;;;;;;;0.48;100.00;95664.72;4997163;28;20039;-76
2022/11/30 02:37:25;;;;;;;104.78;27.17;;;;;;;0.43;100.00;95669.72;4993333;28;20038;-75
2022/11/30 02:39:50;;;;;;;95.30;26.88;;;;;;;0.46;100.00;95666.72;5010385;28;20041;-75
2022/11/30 02:42:16;;;;;;;114.25;27.58;;;;;;;0.49;100.00;95666.31;5011077;28;20526;-75
2022/11/30 02:44:48;;;;;;;101.18;27.42;;;;;;;0.52;100.00;95668.50;4996992;28;20043;-75
2022/11/30 02:47:21;;;;;;;101.45;28.02;;;;;;;0.50;100.00;95678.25;4992322;28;20076;-75
2022/11/30 02:50:00;;;;;;;86.28;23.58;;;;;;;0.51;100.00;95679.84;5002939;28;20089;-75
2022/11/30 02:52:27;;;;;;;73.13;22.40;;;;;;;0.56;100.00;95683.63;4992578;28;20074;-75
2022/11/30 02:55:07;;;;;;;96.80;24.27;;;;;;;0.56;100.00;95681.03;4990300;28;20053;-75
2022/11/30 02:57:34;;;;;;;85.40;23.95;;;;;;;0.56;100.00;95675.84;5010018;28;20070;-75
2022/11/30 03:00:03;;;;;;;92.45;24.00;;;;;;;0.58;100.00;95679.06;5011143;28;20641;-75
2022/11/30 03:02:28;;;;;;;85.32;22.30;;;;;;;0.52;100.00;95678.84;5009931;28;20064;-75
2022/11/30 03:04:54;;;;;;;79.47;21.45;;;;;;;0.51;100.00;95674.66;5001501;28;20484;-75
2022/11/30 03:07:19;;;;;;;72.03;20.65;;;;;;;0.49;100.00;95671.47;4991623;28;20496;-75
2022/11/30 03:09:45;;;;;;;68.68;20.77;;;;;;;0.51;100.00;95685.00;5007555;28;20112;-74
2022/11/30 03:12:10;;;;;;;72.82;19.75;;;;;;;0.56;100.00;95681.03;5005288;28;20085;-75
2022/11/30 03:14:36;;;;;;;80.63;20.63;;;;;;;0.59;100.00;95686.63;5003220;28;20127;-75
2022/11/30 03:17:01;;;;;;;72.55;19.15;;;;;;;0.52;100.00;95691.78;4991129;28;20526;-75
2022/11/30 03:19:27;;;;;;;78.10;19.35;;;;;;;0.50;100.00;95693.81;4991215;28;20046;-75
2022/11/30 03:21:52;;;;;;;72.50;21.00;;;;;;;0.52;100.00;95691.78;5008925;28;20049;-75
2022/11/30 03:24:18;;;;;;;66.57;18.83;;;;;;;0.58;100.00;95694.59;5010018;28;20104;-75
2022/11/30 03:26:44;;;;;;;69.82;19.15;;;;;;;0.59;100.00;95685.81;4999496;28;20057;-75
2022/11/30 03:29:10;;;;;;;77.97;19.40;;;;;;;0.55;100.00;95692.38;5005845;28;20041;-75
2022/11/30 03:31:35;;;;;;;79.05;20.65;;;;;;;0.55;100.00;95689.78;5010109;28;20041;-75
2022/11/30 03:34:01;;;;;;;73.47;19.95;;;;;;;0.50;100.00;95688.63;5010193;28;20092;-75
2022/11/30 03:36:27;;;;;;;69.65;19.15;;;;;;;0.64;100.00;95694.56;4997183;28;20037;-75
2022/11/30 03:38:52;;;;;;;66.95;18.80;;;;;;;0.56;100.00;95693.97;4992043;28;20112;-75
2022/11/30 03:41:18;;;;;;;69.32;19.98;;;;;;;0.59;100.00;95701.34;5010406;28;20049;-75
2022/11/30 03:43:44;;;;;;;72.43;20.15;;;;;;;0.57;100.00;95703.34;4992454;28;20575;-75
2022/11/30 03:46:10;;;;;;;75.65;19.85;;;;;;;0.57;100.00;95698.16;5005946;28;20038;-75
2022/11/30 03:48:36;;;;;;;81.20;20.88;;;;;;;0.54;100.00;95698.56;4990568;28;20089;-75
2022/11/30 03:51:03;;;;;;;76.05;20.63;;;;;;;0.56;100.00;95696.56;5008819;28;20103;-75
2022/11/30 03:53:28;;;;;;;92.60;22.35;;;;;;;0.60;100.00;95698.53;5008945;28;20038;-75
2022/11/30 03:55:56;;;;;;;80.70;21.15;;;;;;;0.66;100.00;95696.94;5006650;28;20084;-75
2022/11/30 03:58:23;;;;;;;75.30;19.98;;;;;;;0.66;100.00;95700.34;5001457;28;20037;-75
2022/11/30 04:00:50;;;;;;;78.20;20.15;;;;;;;0.62;100.00;95696.56;5004558;28;20132;-75
2022/11/30 04:03:15;;;;;;;80.35;21.58;;;;;;;0.66;100.00;95696.94;4997840;28;20046;-75
2022/11/30 04:05:41;;;;;;;85.95;21.90;;;;;;;0.61;100.00;95696.78;5009060;28;20045;-75
2022/11/30 04:08:07;;;;;;;78.85;20.70;;;;;;;0.55;100.00;95694.97;5006921;28;20053;-75
2022/11/30 04:10:33;;;;;;;78.35;20.92;;;;;;;0.54;100.00;95696.78;4998168;28;20574;-75
2022/11/30 04:12:59;;;;;;;79.40;20.80;;;;;;;0.63;100.00;95697.34;4991300;28;20077;-75
2022/11/30 04:15:24;;;;;;;88.18;21.73;;;;;;;0.56;100.00;95702.56;4997153;28;20041;-75
2022/11/30 04:17:50;;;;;;;77.28;22.25;;;;;;;0.59;100.00;95690.97;4996783;28;20054;-75
2022/11/30 04:20:15;;;;;;;82.53;22.17;;;;;;;0.56;100.00;95691.38;5001365;28;20514;-75
2022/11/30 04:22:41;;;;;;;86.07;22.40;;;;;;;0.64;100.00;95693.78;4996103;28;20047;-75
2022/11/30 04:25:07;;;;;;;85.63;22.35;;;;;;;0.59;100.00;95691.78;5014899;28;20046;-75
2022/11/30 04:27:32;;;;;;;88.90;23.67;;;;;;;0.63;100.00;95693.00;5008261;28;20034;-74
2022/11/30 04:29:58;;;;;;;73.38;21.33;;;;;;;0.60;100.00;95682.22;5005572;28;20043;-75
2022/11/30 04:32:23;;;;;;;92.20;24.25;;;;;;;0.63;100.00;95687.81;4994452;28;20470;-75
2022/11/30 04:34:49;;;;;;;86.80;23.33;;;;;;;0.64;100.00;95684.19;5005664;28;20065;-75
2022/11/30 04:37:14;;;;;;;92.53;23.40;;;;;;;0.66;100.00;95689.19;5002615;28;20053;-74
2022/11/30 04:39:40;;;;;;;97.82;24.60;;;;;;;0.66;100.00;95696.94;5006135;28;20045;-75
2022/11/30 04:42:06;;;;;;;89.85;24.45;;;;;;;0.63;100.00;95692.19;5013832;28;20041;-75
2022/11/30 04:44:31;;;;;;;94.22;25.83;;;;;;;0.60;100.00;95692.59;5001667;28;20038;-75
2022/11/30 04:46:57;;;;;;;92.85;23.38;;;;;;;0.63;100.00;95694.75;5008155;28;20077;-75
2022/11/30 04:49:23;;;;;;;86.85;23.10;;;;;;;0.66;100.00;95692.59;5013628;28;20096;-75
2022/11/30 04:51:48;;;;;;;106.95;26.77;;;;;;;0.64;100.00;95693.78;5013675;28;20144;-75
2022/11/30 04:54:13;;;;;;;83.05;24.30;;;;;;;0.58;100.00;95697.19;5010930;28;20050;-75
2022/11/30 04:56:39;;;;;;;97.40;24.77;;;;;;;0.64;100.00;95694.56;5011731;28;20050;-76
2022/11/30 04:59:04;;;;;;;95.85;25.15;;;;;;;0.66;100.00;95702.13;5013456;28;20068;-75
2022/11/30 05:01:30;;;;;;;87.50;24.05;;;;;;;0.64;100.00;95696.38;5013633;28;20519;-75
2022/11/30 05:03:58;;;;;;;87.90;25.38;;;;;;;0.66;100.00;95696.94;4997525;28;20495;-75
2022/11/30 05:06:25;;;;;;;88.40;24.17;;;;;;;0.69;100.00;95701.75;5006121;28;20167;-76
2022/11/30 05:08:51;;;;;;;89.63;24.00;;;;;;;0.65;100.00;95695.38;5013217;28;20052;-75
2022/11/30 05:11:16;;;;;;;97.68;24.67;;;;;;;0.61;100.00;95705.31;5013151;28;20042;-75
2022/11/30 05:13:42;;;;;;;83.95;23.52;;;;;;;0.61;100.00;95709.72;5006557;28;20038;-75
2022/11/30 05:16:09;;;;;;;92.68;23.40;;;;;;;0.68;100.00;95706.13;5012087;28;20034;-75
2022/11/30 05:18:35;;;;;;;82.18;23.15;;;;;;;0.65;100.00;95706.53;5008115;28;20405;-75
2022/11/30 05:21:01;;;;;;;93.28;24.40;;;;;;;0.52;100.00;95702.16;4993803;28;20057;-75
2022/11/30 05:23:26;;;;;;;91.80;25.17;;;;;;;0.64;100.00;95709.31;4993833;28;20424;-75
2022/11/30 05:25:52;;;;;;;86.90;23.02;;;;;;;0.66;100.00;95709.91;5006598;28;20044;-75
2022/11/30 05:28:18;;;;;;;77.25;22.02;;;;;;;0.67;100.00;95714.09;5011582;28;20042;-76
2022/11/30 05:30:43;;;;;;;79.78;23.33;;;;;;;0.66;100.00;95708.13;5013035;28;20553;-75
2022/11/30 05:33:09;;;;;;;85.95;22.88;;;;;;;0.63;100.00;95718.06;5012561;28;20045;-75
2022/11/30 05:35:35;;;;;;;79.45;22.00;;;;;;;0.66;100.00;95715.06;5011451;28;20029;-75
2022/11/30 05:38:00;;;;;;;81.40;23.70;;;;;;;0.67;100.00;95725.22;4999831;28;20496;-75
2022/11/30 05:40:27;;;;;;;80.50;22.42;;;;;;;0.73;100.00;95722.84;5009531;28;20423;-75
2022/11/30 05:42:57;;;;;;;82.75;23.75;;;;;;;0.69;100.00;95725.06;5011234;28;20041;-75
2022/11/30 05:45:23;;;;;;;84.65;23.00;;;;;;;0.65;100.00;95736.81;5012457;28;20038;-75
2022/11/30 05:47:49;;;;;;;78.28;23.52;;;;;;;0.69;100.00;95727.66;5000054;28;20050;-75
2022/11/30 05:50:15;;;;;;;83.72;22.42;;;;;;;0.68;100.00;95737.19;4992940;28;20504;-75
2022/11/30 05:52:40;;;;;;;69.63;22.08;;;;;;;0.71;100.00;95745.59;4997822;28;20126;-75
2022/11/30 05:55:06;;;;;;;71.85;21.15;;;;;;;0.74;100.00;95751.16;5001304;28;20045;-75
2022/11/30 05:57:36;;;;;;;73.13;20.20;;;;;;;0.58;100.00;95741.22;5003621;28;20042;-75
2022/11/30 06:00:03;;;;;;;72.13;20.42;;;;;;;0.64;100.00;95738.59;4992847;28;20547;-75
2022/11/30 06:02:28;;;;;;;75.07;21.42;;;;;;;0.62;100.00;95737.22;5012053;28;20041;-75
2022/11/30 06:04:54;;;;;;;72.85;20.25;;;;;;;0.60;100.00;95740.00;5009762;28;20041;-75
2022/11/30 06:07:19;;;;;;;70.93;19.88;;;;;;;0.64;100.00;95735.22;4992766;28;20050;-75
2022/11/30 06:09:45;;;;;;;72.38;20.75;;;;;;;0.63;100.00;95743.97;5006030;28;20042;-75
2022/11/30 06:12:10;;;;;;;63.50;19.67;;;;;;;0.61;100.00;95738.22;5010353;28;20050;-75
2022/11/30 06:14:36;;;;;;;75.30;20.83;;;;;;;0.65;100.00;95742.00;5004948;28;20069;-75
2022/11/30 06:17:02;;;;;;;81.88;21.20;;;;;;;0.63;100.00;95738.78;5008574;28;20046;-75
2022/11/30 06:19:27;;;;;;;67.25;20.30;;;;;;;0.61;100.00;95736.41;4992331;28;20049;-75
2022/11/30 06:21:53;;;;;;;74.28;21.23;;;;;;;0.63;100.00;95733.63;5010895;28;20030;-75
2022/11/30 06:24:19;;;;;;;64.75;19.75;;;;;;;0.70;100.00;95726.63;5011237;28;20046;-75
2022/11/30 06:26:44;;;;;;;71.32;20.60;;;;;;;0.69;100.00;95733.63;4993664;28;20118;-75
2022/11/30 06:29:10;;;;;;;69.47;19.98;;;;;;;0.69;100.00;95732.84;4992318;28;20042;-75
2022/11/30 06:31:35;;;;;;;68.00;19.85;;;;;;;0.72;100.00;95737.59;4992567;28;20653;-75
2022/11/30 06:34:01;;;;;;;58.95;19.17;;;;;;;0.62;100.00;95732.03;5000482;28;20057;-75
2022/11/30 06:36:26;;;;;;;68.82;19.77;;;;;;;0.68;100.00;95728.63;5008000;28;20046;-75
2022/11/30 06:38:53;;;;;;;67.65;19.60;;;;;;;0.65;100.00;95726.47;4996861;28;20472;-74
2022/11/30 06:41:19;;;;;;;67.07;19.48;;;;;;;0.69;100.00;95730.25;5002786;28;20050;-75
2022/11/30 06:43:45;;;;;;;68.97;20.88;;;;;;;0.67;100.00;95724.44;5005956;28;20045;-76
2022/11/30 06:46:10;;;;;;;63.75;19.13;;;;;;;0.70;100.00;95734.41;5009883;28;20411;-75
2022/11/30 06:48:36;;;;;;;72.13;19.35;;;;;;;0.73;100.00;95733.22;5006374;28;20047;-75
2022/11/30 06:51:05;;;;;;;67.15;19.58;;;;;;;0.66;100.00;95735.81;4992061;28;20050;-75
2022/11/30 06:53:32;;;;;;;62.45;19.77;;;;;;;0.64;100.00;95737.81;5002230;28;20128;-75
2022/11/30 06:55:57;;;;;;;61.15;18.95;;;;;;;0.67;100.00;95740.00;5008929;28;20580;-75
2022/11/30 06:58:23;;;;;;;70.95;20.17;;;;;;;0.67;100.00;95750.34;5011310;28;20042;-75
2022/11/30 07:00:48;;;;;;;69.32;21.42;;;;;;;0.69;100.00;95750.97;5010304;28;20085;-75
2022/11/30 07:03:14;;;;;;;59.78;18.42;;;;;;;0.66;100.00;95751.34;5008887;28;20042;-75
2022/11/30 07:05:42;;;;;;;63.00;18.90;;;;;;;0.73;100.00;95752.13;4998960;28;20049;-76
2022/11/30 07:08:09;;;;;;;69.53;20.13;;;;;;;0.76;100.00;95749.16;5001446;28;20058;-76
2022/11/30 07:10:45;;;;;;;67.38;20.48;;;;;;;0.81;100.00;95745.97;5010691;28;20045;-75
2022/11/30 07:13:13;;;;;;;74.28;20.33;;;;;;;0.85;100.00;95750.53;5010793;28;20045;-76
2022/11/30 07:15:40;;;;;;;74.25;19.27;;;;;;;0.84;100.00;95751.53;4992549;28;20412;-75
2022/11/30 07:18:06;;;;;;;70.53;20.45;;;;;;;0.81;100.00;95751.94;4995128;28;20508;-75
2022/11/30 07:20:32;;;;;;;64.50;18.77;;;;;;;0.81;100.00;95757.13;5000096;28;20049;-75
2022/11/30 07:26:05;;;;;;;69.53;20.30;;;;;;;0.82;100.00;95753.53;5007022;28;20523;-75
2022/11/30 07:28:27;;;;;;;84.65;20.10;;;;;;;0.84;100.00;95756.72;5006326;28;20786;-74
2022/11/30 07:30:53;;;;;;;64.15;20.27;;;;;;;0.90;100.00;95760.28;5010977;28;20042;-70
2022/11/30 07:33:18;;;;;;;66.72;18.75;;;;;;;0.88;100.00;95762.28;5009864;28;20411;-71
2022/11/30 07:35:44;;;;;;;66.15;20.23;;;;;;;0.94;100.00;95760.69;4999708;28;20508;-72
2022/11/30 07:38:10;;;;;;;77.82;20.38;;;;;;;0.93;100.00;95764.28;5005572;28;20046;-72
2022/11/30 07:40:36;;;;;;;68.28;20.42;;;;;;;0.88;100.00;95761.47;5007827;28;20060;-72
2022/11/30 07:43:01;;;;;;;63.58;18.95;;;;;;;0.96;100.00;95763.88;4997899;28;20417;-72
2022/11/30 07:45:27;;;;;;;70.13;20.23;;;;;;;0.93;100.00;95751.31;4996041;28;20109;-73
2022/11/30 07:47:53;;;;;;;61.47;20.17;;;;;;;0.94;100.00;95750.31;5000126;28;20045;-73
2022/11/30 07:50:19;;;;;;;77.03;22.20;;;;;;;0.98;100.00;95752.31;5002703;28;20488;-73
2022/11/30 07:52:44;;;;;;;69.85;22.48;;;;;;;0.88;100.00;95756.31;5010614;28;20042;-72
2022/11/30 07:55:10;;;;;;;72.18;21.63;;;;;;;1.03;100.00;95764.66;5007390;28;20049;-74
2022/11/30 07:57:35;;;;;;;71.82;21.10;;;;;;;1.01;100.00;95764.06;4993595;28;20428;-74
2022/11/30 08:00:02;;;;;;;71.82;20.33;;;;;;;1.03;100.00;95764.66;5009456;28;20471;-73
2022/11/30 08:02:28;;;;;;;75.00;21.27;;;;;;;1.05;100.00;95762.66;5009969;28;20038;-73
2022/11/30 08:04:56;;;;;;;68.57;22.00;;;;;;;1.03;100.00;95749.09;4998463;28;20047;-73
2022/11/30 08:07:22;;;;;;;73.30;20.33;;;;;;;1.12;100.00;95755.69;4998706;28;20038;-74
2022/11/30 08:09:47;;;;;;;71.57;21.02;;;;;;;1.10;100.00;95755.06;5001574;28;20044;-72
2022/11/30 08:12:13;;;;;;;70.40;21.27;;;;;;;1.16;100.00;95758.63;5013307;28;20046;-73
2022/11/30 08:14:39;;;;;;;87.63;23.48;;;;;;;1.06;100.00;95758.28;5000104;28;20049;-72
2022/11/30 08:17:05;;;;;;;77.45;21.75;;;;;;;1.10;100.00;95762.06;5009324;28;20046;-73
2022/11/30 08:19:30;;;;;;;65.10;20.38;;;;;;;1.12;100.00;95773.00;5012005;28;20042;-72
2022/11/30 08:21:56;;;;;;;65.15;21.35;;;;;;;1.13;100.00;95759.84;5013723;28;20415;-72
2022/11/30 08:24:21;;;;;;;72.68;21.90;;;;;;;1.18;100.00;95761.84;5009561;28;20038;-73
2022/11/30 08:26:50;;;;;;;68.13;19.67;;;;;;;1.14;100.00;95766.63;5007465;28;20038;-73
2022/11/30 08:29:16;;;;;;;78.75;20.33;;;;;;;1.13;100.00;95765.03;5010199;28;20042;-72
2022/11/30 08:31:42;;;;;;;68.78;22.35;;;;;;;1.20;100.00;95759.84;5001622;28;20042;-73
2022/11/30 08:34:10;;;;;;;67.28;19.75;;;;;;;1.20;100.00;95768.41;4992494;28;20049;-71
2022/11/30 08:36:37;;;;;;;66.80;20.27;;;;;;;1.24;100.00;95771.41;5010251;28;20052;-73
2022/11/30 08:39:04;;;;;;;69.40;19.83;;;;;;;1.32;100.00;95772.94;5034247;28;20038;-73
2022/11/30 08:41:30;;;;;;;65.72;19.33;;;;;;;1.31;100.00;95776.56;4994735;28;20101;-73
2022/11/30 08:43:56;;;;;;;69.45;20.13;;;;;;;1.26;100.00;95771.97;4991211;28;20511;-73
2022/11/30 08:46:23;;;;;;;62.33;17.63;;;;;;;1.31;100.00;95771.38;5007762;28;20069;-73
2022/11/30 08:48:49;;;;;;;63.85;19.85;;;;;;;1.33;100.00;95777.16;5002214;28;20081;-73
2022/11/30 08:51:17;;;;;;;61.70;18.58;;;;;;;1.27;100.00;95780.56;4990236;28;20046;-73
2022/11/30 08:53:43;;;;;;;59.85;19.17;;;;;;;1.35;100.00;95783.72;4990237;28;20043;-74
2022/11/30 08:56:15;;;;;;;62.50;17.30;;;;;;;1.40;100.00;95780.53;5001145;28;20069;-73
2022/11/30 08:58:41;;;;;;;61.15;19.60;;;;;;;1.52;100.00;95791.03;4995432;28;20049;-73
2022/11/30 09:01:21;;;;;;;60.53;19.55;;;;;;;1.44;100.00;95786.91;4990202;28;20042;-73
2022/11/30 09:03:49;;;;;;;67.60;19.35;;;;;;;1.47;100.00;95791.66;4990286;28;20046;-74
2022/11/30 09:06:20;;;;;;;71.75;21.50;;;;;;;1.42;100.00;95788.88;5000985;28;20042;-73
2022/11/30 09:08:47;;;;;;;65.03;20.35;;;;;;;1.39;100.00;95791.88;5007745;28;20042;-73
2022/11/30 09:11:15;;;;;;;70.30;19.42;;;;;;;1.42;100.00;95794.06;5008513;28;20038;-73
2022/11/30 09:13:41;;;;;;;60.55;19.20;;;;;;;1.37;100.00;95791.31;5005038;28;20664;-73
2022/11/30 09:16:07;;;;;;;69.25;20.42;;;;;;;1.44;100.00;95789.50;4999347;28;20041;-74
2022/11/30 09:18:33;;;;;;;58.15;18.15;;;;;;;1.46;100.00;95792.66;5006794;28;20474;-76
2022/11/30 09:21:00;;;;;;;64.65;19.75;;;;;;;1.51;100.00;95792.06;5002262;28;20043;-73
2022/11/30 09:23:27;;;;;;;66.38;19.15;;;;;;;1.48;100.00;95788.09;5011846;28;20052;-74
2022/11/30 09:25:57;;;;;;;58.30;16.92;;;;;;;1.51;100.00;95782.47;5002510;28;20065;-74
2022/11/30 09:28:23;;;;;;;57.83;18.58;;;;;;;1.50;100.00;95780.88;5009066;28;20388;-74
2022/11/30 09:30:49;;;;;;;58.00;18.48;;;;;;;1.43;100.00;95785.28;5029034;28;20392;-74
2022/11/30 09:33:15;;;;;;;59.03;18.50;;;;;;;1.51;100.00;95786.88;5015195;28;20100;-73
2022/11/30 09:35:40;;;;;;;50.42;16.45;;;;;;;1.56;100.00;95785.25;5004765;28;20073;-73
2022/11/30 09:38:06;;;;;;;48.80;15.90;;;;;;;1.48;100.00;95782.91;5004252;28;20064;-73
2022/11/30 09:40:35;;;;;;;48.45;17.42;;;;;;;1.57;100.00;95786.06;5006800;28;20121;-76
2022/11/30 09:43:27;;;;;;;60.22;17.85;;;;;;;1.54;100.00;95787.25;5006047;28;20038;-73
2022/11/30 09:45:58;;;;;;;55.30;17.33;;;;;;;1.68;100.00;95782.00;5001373;28;20107;-73
2022/11/30 09:48:41;;;;;;;51.08;16.95;;;;;;;1.62;100.00;95775.06;5002547;28;20444;-73
2022/11/30 09:51:16;;;;;;;54.05;17.48;;;;;;;1.71;100.00;95771.22;5000883;28;20069;-74
2022/11/30 09:53:50;;;;;;;56.00;17.67;;;;;;;1.66;100.00;95768.44;4995187;28;20046;-74
2022/11/30 09:56:32;;;;;;;58.97;18.33;;;;;;;1.84;100.00;95773.75;5004636;28;20038;-74
2022/11/30 09:59:25;;;;;;;57.83;17.55;;;;;;;1.86;100.00;95769.16;5006232;28;20045;-74
2022/11/30 10:01:51;;;;;;;68.38;20.50;;;;;;;1.96;100.00;95778.31;5002385;28;20090;-73
2022/11/30 10:04:23;;;;;;;61.13;18.08;;;;;;;1.94;100.00;95780.28;5002671;28;20161;-74
2022/11/30 10:07:16;;;;;;;53.75;16.50;;;;;;;1.86;100.00;95774.34;5002848;28;20524;-74
2022/11/30 10:10:06;;;;;;;54.70;16.95;;;;;;;1.95;100.00;95781.88;5026623;28;20072;-73
2022/11/30 10:12:43;;;;;;;52.65;18.33;;;;;;;1.87;100.00;95786.31;5003730;28;20073;-78
2022/11/30 10:15:57;;;;;;;55.85;16.60;;;;;;;1.87;100.00;95777.75;5004769;28;20045;-74
2022/11/30 10:19:00;;;;;;;55.20;17.73;;;;;;;1.98;100.00;95787.44;4956898;28;20067;-74
2022/11/30 10:21:46;;;;;;;54.75;16.52;;;;;;;1.83;100.00;95779.94;4996563;28;20603;-75
2022/11/30 10:24:16;;;;;;;50.40;16.48;;;;;;;1.87;100.00;95790.72;5003233;28;20054;-74
2022/11/30 10:26:53;;;;;;;57.85;17.90;;;;;;;1.92;100.00;95787.50;5002797;28;20072;-73
2022/11/30 10:29:34;;;;;;;49.22;16.23;;;;;;;1.88;100.00;95787.91;5000499;28;20037;-73
2022/11/30 10:32:15;;;;;;;54.80;16.45;;;;;;;1.90;100.00;95780.72;5000718;28;20048;-73
2022/11/30 10:34:43;;;;;;;51.50;16.13;;;;;;;1.94;100.00;95780.28;4998831;28;20038;-72
2022/11/30 10:37:15;;;;;;;56.33;15.88;;;;;;;1.82;100.00;95783.53;5011914;28;20463;-74
2022/11/30 10:39:53;;;;;;;51.47;16.52;;;;;;;1.90;100.00;95779.94;4999839;28;20184;-73
2022/11/30 10:42:27;;;;;;;46.95;15.85;;;;;;;1.85;100.00;95772.78;4995605;28;20061;-73
2022/11/30 10:45:04;;;;;;;49.92;16.08;;;;;;;1.90;100.00;95775.53;5017117;28;20049;-73
2022/11/30 10:47:35;;;;;;;51.40;17.73;;;;;;;1.88;100.00;95772.34;5001110;28;20144;-73
2022/11/30 10:50:03;;;;;;;48.63;14.90;;;;;;;1.88;100.00;95772.34;5014972;28;20393;-76
2022/11/30 10:52:45;;;;;;;40.85;14.38;;;;;;;2.01;100.00;95770.66;5010102;28;20085;-75
2022/11/30 10:55:27;;;;;;;49.25;15.43;;;;;;;1.97;100.00;95764.28;5007574;28;20503;-74
2022/11/30 10:58:06;;;;;;;52.45;15.85;;;;;;;2.09;100.00;95767.84;4998431;28;20096;-75
2022/11/30 11:00:31;;;;;;;46.92;16.15;;;;;;;2.15;100.00;95761.00;5007075;28;20045;-75
2022/11/30 11:02:57;;;;;;;52.65;16.80;;;;;;;2.17;100.00;95752.00;5000248;28;20039;-78
2022/11/30 11:05:28;;;;;;;48.70;16.65;;;;;;;2.12;100.00;95759.63;5008801;28;20053;-79
2022/11/30 11:08:24;;;;;;;47.85;16.05;;;;;;;2.13;100.00;95756.03;4996270;28;20042;-79
2022/11/30 11:10:52;;;;;;;52.00;17.88;;;;;;;2.15;100.00;95746.22;4991204;28;20075;-73
2022/11/30 11:13:31;;;;;;;48.75;15.13;;;;;;;2.14;100.00;95749.84;5001242;28;20069;-74
2022/11/30 11:15:59;;;;;;;39.15;14.32;;;;;;;2.15;100.00;95756.59;5014277;28;20038;-75
2022/11/30 11:18:27;;;;;;;49.28;16.60;;;;;;;2.22;100.00;95756.56;4998728;28;20046;-75
2022/11/30 11:21:01;;;;;;;47.35;16.13;;;;;;;2.30;100.00;95752.91;5006803;28;20050;-74
2022/11/30 11:23:41;;;;;;;42.58;14.93;;;;;;;2.32;100.00;95756.09;5009559;28;20042;-74
2022/11/30 11:26:18;;;;;;;41.47;14.93;;;;;;;2.31;100.00;95751.91;5001904;28;20063;-74